Edmonds, Washington
Current Conditions -  °F | °C
As of 3:53 AM on Thursday 23 Oct 2014 (Local Time) from KPAE Reporting Station
Clear Clear  
Wind Chill: 52°   Ceiling: Unl
Heat Index: 52°   Visibility: 10mi
Dew Point: 47°   Wind: 15mph
Humidity: 83%   Direction: 160°SSE
Pressure: 29.7"   Gusts: NA
Location:  47.81°N, 122.37°W
Report Text: KPAE 231053Z AUTO 16013KT 10SM CLR 11/08 A2970 RMK AO2 SLP056 T01110083
Loading
Personal Weather Stations






























Interactive Weather Map
Tropical Storm Tracking
New forecast layout! Learn more

10-Day Weather Forecast

Advertisements
Track Severe Weather on mobile